createdAt,value
2018-06-10T00:00:02.808Z,97.70
2018-06-10T00:01:34.713Z,91.50
2018-06-10T00:03:06.423Z,90.90
2018-06-10T00:04:38.235Z,84.10
2018-06-10T00:06:10.044Z,90.50
2018-06-10T00:07:42.106Z,77.00
2018-06-10T00:09:13.663Z,82.60
2018-06-10T00:10:45.475Z,81.20
2018-06-10T00:12:17.284Z,75.60
2018-06-10T00:13:49.095Z,74.60
2018-06-10T00:15:20.904Z,78.00
2018-06-10T00:16:52.714Z,77.50
2018-06-10T00:18:24.525Z,75.50
2018-06-10T00:19:56.435Z,77.50
2018-06-10T00:21:28.149Z,88.10
2018-06-10T00:22:59.959Z,75.80
2018-06-10T00:24:31.766Z,81.20
2018-06-10T00:26:03.576Z,73.70
2018-06-10T00:27:35.386Z,77.20
2018-06-10T00:29:07.196Z,76.60
2018-06-10T00:30:39.009Z,73.30
2018-06-10T00:32:10.827Z,71.50
2018-06-10T00:33:42.632Z,74.30
2018-06-10T00:35:14.437Z,75.90
2018-06-10T00:36:46.247Z,81.50
2018-06-10T00:38:18.158Z,84.00
2018-06-10T00:39:49.919Z,75.40
2018-06-10T00:41:21.678Z,83.50
2018-06-10T00:42:53.488Z,84.40
2018-06-10T00:44:25.299Z,78.30
2018-06-10T00:45:57.110Z,80.10
2018-06-10T00:47:28.919Z,80.20
2018-06-10T00:49:00.730Z,86.30
2018-06-10T00:50:32.539Z,89.70
2018-06-10T00:52:04.349Z,92.20
2018-06-10T00:53:36.159Z,82.40
2018-06-10T00:55:07.969Z,81.70
2018-06-10T00:56:39.880Z,85.80
2018-06-10T00:58:11.589Z,80.20
2018-06-10T00:59:43.399Z,88.60
2018-06-10T01:01:15.209Z,94.40
2018-06-10T01:02:47.020Z,87.40
2018-06-10T01:04:18.829Z,93.00
2018-06-10T01:05:50.640Z,102.80
2018-06-10T01:07:22.450Z,104.60
2018-06-10T01:08:54.563Z,105.70
2018-06-10T01:10:26.075Z,98.50
2018-06-10T01:11:57.882Z,104.10
2018-06-10T01:13:29.692Z,108.60
2018-06-10T01:15:01.601Z,106.80
2018-06-10T01:16:33.311Z,97.50
2018-06-10T01:18:05.122Z,101.40
2018-06-10T01:19:36.934Z,99.90
2018-06-10T01:21:08.748Z,97.10
2018-06-10T01:22:40.552Z,97.00
2018-06-10T01:24:12.362Z,104.60
2018-06-10T01:25:44.172Z,98.50
2018-06-10T01:27:15.982Z,95.40
2018-06-10T01:28:47.791Z,95.00
2018-06-10T01:30:19.602Z,93.30
2018-06-10T01:31:51.412Z,88.70
2018-06-10T01:33:23.322Z,84.10
2018-06-10T01:34:55.032Z,84.70
2018-06-10T01:36:26.843Z,77.10
2018-06-10T01:37:58.656Z,83.30
2018-06-10T01:39:30.466Z,81.60
2018-06-10T01:41:02.272Z,82.80
2018-06-10T01:42:34.083Z,72.90
2018-06-10T01:44:05.892Z,70.80
2018-06-10T01:45:37.703Z,68.40
2018-06-10T01:47:09.513Z,70.10
2018-06-10T01:48:41.322Z,70.80
2018-06-10T01:50:13.133Z,72.80
2018-06-10T01:51:45.044Z,73.70
2018-06-10T01:53:16.758Z,68.40
2018-06-10T01:54:48.571Z,76.30
2018-06-10T01:56:20.375Z,72.00
2018-06-10T01:57:52.188Z,71.60
2018-06-10T01:59:23.994Z,69.10
2018-06-10T02:00:55.806Z,69.60
2018-06-10T02:02:27.615Z,66.90
2018-06-10T02:03:59.425Z,64.70
2018-06-10T02:05:31.235Z,60.10
2018-06-10T02:07:03.052Z,58.20
2018-06-10T02:08:34.855Z,56.20
2018-06-10T02:10:06.765Z,56.10
2018-06-10T02:11:38.474Z,61.20
2018-06-10T02:13:10.286Z,55.40
2018-06-10T02:14:42.095Z,54.40
2018-06-10T02:16:13.906Z,58.40
2018-06-10T02:17:45.715Z,52.10
2018-06-10T02:19:17.530Z,54.40
2018-06-10T02:20:49.335Z,52.50
2018-06-10T02:22:21.145Z,51.60
2018-06-10T02:23:52.955Z,43.80
2018-06-10T02:25:24.765Z,46.40
2018-06-10T02:26:56.576Z,51.40
2018-06-10T02:28:28.486Z,47.20
2018-06-10T02:30:00.196Z,46.60
2018-06-10T02:31:32.007Z,49.80
2018-06-10T02:33:03.819Z,43.70
2018-06-10T02:34:35.625Z,49.60
2018-06-10T02:36:07.441Z,47.40
2018-06-10T02:37:39.255Z,46.10
2018-06-10T02:39:11.057Z,49.00
2018-06-10T02:40:43.129Z,44.50
2018-06-10T02:42:14.676Z,45.20
2018-06-10T02:43:46.487Z,50.40
2018-06-10T02:45:18.296Z,53.90
2018-06-10T02:46:50.208Z,50.10
2018-06-10T02:48:21.917Z,46.00
2018-06-10T02:49:53.727Z,50.50
2018-06-10T02:51:25.537Z,50.80
2018-06-10T02:52:57.353Z,48.40
2018-06-10T02:54:29.160Z,49.20
2018-06-10T02:56:00.967Z,49.90
2018-06-10T02:57:32.777Z,50.60
2018-06-10T02:59:04.586Z,52.50
2018-06-10T03:00:36.397Z,50.80
2018-06-10T03:02:08.206Z,47.40
2018-06-10T03:03:40.017Z,46.30
2018-06-10T03:05:11.928Z,43.80
2018-06-10T03:06:43.637Z,43.10
2018-06-10T03:08:15.446Z,48.10
2018-06-10T03:09:47.257Z,46.00
2018-06-10T03:11:19.068Z,49.80
2018-06-10T03:12:50.881Z,51.70
2018-06-10T03:14:22.691Z,48.30
2018-06-10T03:15:54.498Z,49.60
2018-06-10T03:17:26.305Z,54.20
2018-06-10T03:18:58.115Z,52.00
2018-06-10T03:20:29.927Z,54.10
2018-06-10T03:22:01.736Z,53.30
2018-06-10T03:23:33.646Z,54.50
2018-06-10T03:25:05.358Z,53.20
2018-06-10T03:26:37.201Z,54.60
2018-06-10T03:28:08.976Z,49.30
2018-06-10T03:29:40.787Z,46.80
2018-06-10T03:31:12.595Z,48.90
2018-06-10T03:32:44.405Z,47.20
2018-06-10T03:34:16.215Z,50.80
2018-06-10T03:35:48.026Z,53.60
2018-06-10T03:37:19.835Z,50.80
2018-06-10T03:38:51.647Z,47.10
2018-06-10T03:40:23.457Z,46.40
2018-06-10T03:41:55.366Z,45.00
2018-06-10T03:43:27.076Z,44.20
2018-06-10T03:44:58.886Z,44.00
2018-06-10T03:46:30.698Z,44.50
2018-06-10T03:48:02.508Z,41.90
2018-06-10T03:49:34.316Z,47.00
2018-06-10T03:51:06.126Z,47.80
2018-06-10T03:52:37.940Z,47.00
2018-06-10T03:54:09.747Z,45.30
2018-06-10T03:55:41.557Z,44.90
2018-06-10T03:57:13.367Z,44.90
2018-06-10T03:58:45.177Z,47.70
2018-06-10T04:00:17.087Z,50.50
2018-06-10T04:01:48.798Z,53.70
2018-06-10T04:03:20.608Z,51.30
2018-06-10T04:04:52.417Z,53.90
2018-06-10T04:06:24.229Z,52.80
2018-06-10T04:07:56.036Z,59.20
2018-06-10T04:09:27.849Z,59.20
2018-06-10T04:10:59.662Z,57.40
2018-06-10T04:12:31.721Z,60.50
2018-06-10T04:14:03.277Z,65.50
2018-06-10T04:15:35.087Z,60.40
2018-06-10T04:17:06.897Z,61.90
2018-06-10T04:18:38.807Z,62.90
2018-06-10T04:20:10.516Z,68.40
2018-06-10T04:21:42.327Z,63.00
2018-06-10T04:23:14.137Z,59.30
2018-06-10T04:24:45.948Z,59.80
2018-06-10T04:26:17.758Z,64.70
2018-06-10T04:27:49.568Z,57.80
2018-06-10T04:29:21.378Z,60.20
2018-06-10T04:30:53.189Z,58.40
2018-06-10T04:32:24.998Z,56.90
2018-06-10T04:33:56.808Z,54.30
2018-06-10T04:35:28.620Z,53.00
2018-06-10T04:37:00.529Z,54.90
2018-06-10T04:38:32.239Z,61.00
2018-06-10T04:40:04.050Z,62.20
2018-06-10T04:41:35.859Z,61.20
2018-06-10T04:43:07.671Z,63.50
2018-06-10T04:44:39.479Z,59.90
2018-06-10T04:46:11.295Z,63.60
2018-06-10T04:47:43.099Z,69.80
2018-06-10T04:49:14.910Z,72.30
2018-06-10T04:50:46.721Z,73.00
2018-06-10T04:52:18.529Z,72.50
2018-06-10T04:53:50.340Z,75.60
2018-06-10T04:55:22.300Z,76.50
2018-06-10T04:56:53.959Z,80.90
2018-06-10T04:58:25.770Z,79.80
2018-06-10T04:59:57.578Z,77.90
2018-06-10T05:01:29.539Z,82.80
2018-06-10T05:03:01.404Z,86.80
2018-06-10T05:04:33.008Z,91.20
2018-06-10T05:06:04.818Z,88.30
2018-06-10T05:07:36.628Z,92.10
2018-06-10T05:09:08.437Z,94.90
2018-06-10T05:10:40.248Z,91.60
2018-06-10T05:12:12.056Z,98.60
2018-06-10T05:13:44.217Z,91.50
2018-06-10T05:15:15.677Z,102.00
2018-06-10T05:16:47.485Z,96.70
2018-06-10T05:18:19.302Z,114.50
2018-06-10T05:19:51.135Z,119.50
2018-06-10T05:21:22.915Z,121.10
2018-06-10T05:22:54.724Z,113.50
2018-06-10T05:24:26.534Z,120.70
2018-06-10T05:25:58.344Z,122.00
2018-06-10T05:27:30.154Z,120.00
2018-06-10T05:29:01.963Z,134.90
2018-06-10T05:30:33.773Z,128.90
2018-06-10T05:32:05.683Z,126.30
2018-06-10T05:33:37.392Z,136.50
2018-06-10T05:35:09.202Z,137.40
2018-06-10T05:36:41.011Z,134.50
2018-06-10T05:38:12.821Z,138.10
2018-06-10T05:39:44.632Z,124.00
2018-06-10T05:41:16.440Z,131.90
2018-06-10T05:42:48.250Z,130.10
2018-06-10T05:44:20.309Z,137.50
2018-06-10T05:45:51.869Z,125.00
2018-06-10T05:47:23.678Z,135.20
2018-06-10T05:48:55.487Z,115.40
2018-06-10T05:50:27.396Z,124.20
2018-06-10T05:51:59.106Z,122.90
2018-06-10T05:53:30.915Z,129.90
2018-06-10T05:55:02.726Z,138.40
2018-06-10T05:56:34.535Z,124.20
2018-06-10T05:58:06.344Z,121.70
2018-06-10T05:59:38.154Z,119.50
2018-06-10T06:01:09.963Z,125.20
2018-06-10T06:02:41.774Z,134.00
2018-06-10T06:04:13.584Z,131.40
2018-06-10T06:05:45.396Z,127.30
2018-06-10T06:07:17.202Z,130.40
2018-06-10T06:08:49.111Z,140.60
2018-06-10T06:10:20.825Z,146.60
2018-06-10T06:11:52.633Z,139.50
2018-06-10T06:13:24.531Z,158.90
2018-06-10T06:14:56.250Z,164.00
2018-06-10T06:16:28.059Z,176.00
2018-06-10T06:17:59.870Z,176.40
2018-06-10T06:19:31.678Z,178.30
2018-06-10T06:21:03.489Z,179.00
2018-06-10T06:22:35.298Z,173.50
2018-06-10T06:24:07.109Z,195.10
2018-06-10T06:25:38.917Z,186.60
2018-06-10T06:27:10.984Z,197.60
2018-06-10T06:28:42.537Z,201.10
2018-06-10T06:30:14.346Z,205.30
2018-06-10T06:31:46.156Z,205.30
2018-06-10T06:33:17.970Z,207.90
2018-06-10T06:34:49.777Z,207.60
2018-06-10T06:36:21.585Z,209.20
2018-06-10T06:37:53.407Z,221.60
2018-06-10T06:39:25.268Z,208.60
2018-06-10T06:40:57.013Z,199.60
2018-06-10T06:42:28.825Z,192.30
2018-06-10T06:44:00.632Z,204.70
2018-06-10T06:45:32.793Z,185.60
2018-06-10T06:47:04.304Z,192.00
2018-06-10T06:48:36.060Z,171.20
2018-06-10T06:50:07.870Z,177.60
2018-06-10T06:51:39.681Z,166.70
2018-06-10T06:53:11.489Z,162.70
2018-06-10T06:54:43.300Z,163.50
2018-06-10T06:56:15.109Z,158.60
2018-06-10T06:57:46.920Z,168.80
2018-06-10T06:59:18.728Z,168.60
2018-06-10T07:00:50.539Z,156.80
2018-06-10T07:02:22.348Z,148.90
2018-06-10T07:03:54.458Z,159.40
2018-06-10T07:05:25.968Z,164.30
2018-06-10T07:06:57.778Z,147.80
2018-06-10T07:08:29.589Z,159.60
2018-06-10T07:10:01.406Z,157.10
2018-06-10T07:11:33.209Z,162.30
2018-06-10T07:13:05.018Z,164.50
2018-06-10T07:14:36.828Z,152.60
2018-06-10T07:16:08.892Z,160.90
2018-06-10T07:17:40.446Z,144.20
2018-06-10T07:19:12.258Z,151.20
2018-06-10T07:20:44.068Z,157.60
2018-06-10T07:22:15.985Z,140.40
2018-06-10T07:23:47.735Z,150.70
2018-06-10T07:25:19.497Z,160.10
2018-06-10T07:26:51.309Z,159.50
2018-06-10T07:28:23.116Z,158.10
2018-06-10T07:29:54.925Z,149.10
2018-06-10T07:31:26.736Z,159.30
2018-06-10T07:32:58.549Z,164.50
2018-06-10T07:34:30.356Z,167.80
2018-06-10T07:36:02.170Z,165.80
2018-06-10T07:37:33.974Z,171.80
2018-06-10T07:39:05.788Z,175.70
2018-06-10T07:40:37.772Z,176.30
2018-06-10T07:42:09.405Z,182.00
2018-06-10T07:43:41.216Z,178.90
2018-06-10T07:45:13.023Z,181.40
2018-06-10T07:46:45.083Z,162.80
2018-06-10T07:48:16.656Z,156.70
2018-06-10T07:49:48.453Z,156.50
2018-06-10T07:51:20.264Z,159.50
2018-06-10T07:52:52.072Z,159.20
2018-06-10T07:54:23.881Z,178.60
2018-06-10T07:55:55.691Z,222.50
2018-06-10T07:57:27.500Z,192.40
2018-06-10T07:58:59.409Z,211.90
2018-06-10T08:00:31.119Z,199.80
2018-06-10T08:02:02.931Z,233.20
2018-06-10T08:03:34.739Z,224.10
2018-06-10T08:05:06.548Z,226.70
2018-06-10T08:06:38.359Z,207.50
2018-06-10T08:08:10.167Z,237.50
2018-06-10T08:09:41.978Z,192.80
2018-06-10T08:11:13.786Z,193.90
2018-06-10T08:12:45.596Z,201.40
2018-06-10T08:14:17.405Z,214.70
2018-06-10T08:15:49.215Z,220.30
2018-06-10T08:17:21.125Z,223.20
2018-06-10T08:18:52.832Z,189.90
2018-06-10T08:20:24.642Z,196.70
2018-06-10T08:21:56.453Z,165.90
2018-06-10T08:23:28.261Z,167.50
2018-06-10T08:25:00.073Z,176.10
2018-06-10T08:26:31.948Z,179.70
2018-06-10T08:28:03.690Z,196.80
2018-06-10T08:29:35.620Z,199.30
2018-06-10T08:31:07.309Z,180.80
2018-06-10T08:32:39.119Z,190.80
2018-06-10T08:34:10.928Z,191.80
2018-06-10T08:35:42.838Z,196.50
2018-06-10T08:37:14.548Z,188.80
2018-06-10T08:38:46.357Z,190.10
2018-06-10T08:40:18.166Z,203.00
2018-06-10T08:41:49.976Z,208.30
2018-06-10T08:43:21.786Z,184.30
2018-06-10T08:44:53.598Z,178.90
2018-06-10T08:46:25.405Z,156.30
2018-06-10T08:47:57.215Z,149.50
2018-06-10T08:49:29.025Z,154.20
2018-06-10T08:51:00.835Z,163.20
2018-06-10T08:52:32.644Z,151.80
2018-06-10T08:54:04.554Z,160.30
2018-06-10T08:55:36.264Z,173.00
2018-06-10T08:57:08.074Z,156.90
2018-06-10T08:58:39.882Z,170.50
2018-06-10T09:00:11.694Z,188.70
2018-06-10T09:01:43.506Z,219.00
2018-06-10T09:03:15.319Z,209.50
2018-06-10T09:04:47.129Z,205.40
2018-06-10T09:06:18.931Z,182.90
2018-06-10T09:07:50.741Z,215.40
2018-06-10T09:09:22.550Z,176.60
2018-06-10T09:10:54.364Z,227.60
2018-06-10T09:12:26.273Z,217.10
2018-06-10T09:13:57.982Z,247.10
2018-06-10T09:15:29.788Z,301.20
2018-06-10T09:17:01.598Z,197.00
2018-06-10T09:18:33.411Z,192.30
2018-06-10T09:20:05.222Z,187.80
2018-06-10T09:21:37.027Z,171.80
2018-06-10T09:23:08.842Z,180.10
2018-06-10T09:24:40.647Z,202.90
2018-06-10T09:26:12.457Z,197.00
2018-06-10T09:27:44.267Z,248.40
2018-06-10T09:29:16.077Z,246.20
2018-06-10T09:30:47.987Z,329.10
2018-06-10T09:32:19.693Z,214.30
2018-06-10T09:33:51.503Z,235.60
2018-06-10T09:35:23.350Z,267.50
2018-06-10T09:36:55.122Z,259.20
2018-06-10T09:38:26.934Z,310.60
2018-06-10T09:39:58.741Z,313.80
2018-06-10T09:41:30.555Z,251.60
2018-06-10T09:43:02.363Z,261.90
2018-06-10T09:44:34.171Z,252.60
2018-06-10T09:46:05.981Z,279.40
2018-06-10T09:47:37.792Z,241.90
2018-06-10T09:49:09.953Z,197.60
2018-06-10T09:50:41.411Z,223.80
2018-06-10T09:52:13.218Z,181.00
2018-06-10T09:53:45.029Z,207.30
2018-06-10T09:55:16.908Z,276.10
2018-06-10T09:56:48.648Z,314.90
2018-06-10T09:58:20.457Z,322.90
2018-06-10T09:59:52.268Z,407.00
2018-06-10T10:01:24.079Z,352.80
2018-06-10T10:02:55.888Z,334.30
2018-06-10T10:04:27.697Z,377.90
2018-06-10T10:05:59.506Z,313.90
2018-06-10T10:07:31.417Z,267.20
2018-06-10T10:09:03.127Z,325.90
2018-06-10T10:10:34.938Z,434.70
2018-06-10T10:12:06.744Z,432.10
2018-06-10T10:13:38.558Z,394.80
2018-06-10T10:15:10.363Z,339.70
2018-06-10T10:16:42.175Z,388.50
2018-06-10T10:18:13.985Z,364.20
2018-06-10T10:19:45.795Z,326.60
2018-06-10T10:21:17.604Z,312.00
2018-06-10T10:22:49.415Z,348.20
2018-06-10T10:24:21.224Z,402.60
2018-06-10T10:27:24.945Z,306.10
2018-06-10T10:28:56.651Z,245.30
2018-06-10T10:30:28.461Z,210.60
2018-06-10T10:32:00.272Z,205.50
2018-06-10T10:33:32.084Z,232.60
2018-06-10T10:35:03.893Z,272.00
2018-06-10T10:36:35.701Z,254.10
2018-06-10T10:38:07.510Z,244.50
2018-06-10T10:39:39.320Z,268.70
2018-06-10T10:41:11.130Z,227.60
2018-06-10T10:42:42.944Z,232.00
2018-06-10T10:44:15.057Z,188.70
2018-06-10T10:45:46.664Z,200.80
2018-06-10T10:47:18.371Z,269.20
2018-06-10T10:48:50.221Z,218.40
2018-06-10T10:50:21.993Z,181.10
2018-06-10T10:51:53.807Z,220.80
2018-06-10T10:53:25.615Z,244.90
2018-06-10T10:54:57.423Z,166.50
2018-06-10T10:56:29.234Z,200.40
2018-06-10T10:59:32.856Z,130.60
2018-06-10T11:01:04.664Z,124.80
2018-06-10T11:02:36.475Z,125.80
2018-06-10T11:04:08.284Z,94.00
2018-06-10T11:05:40.195Z,102.50
2018-06-10T11:07:11.905Z,86.70
2018-06-10T11:08:43.714Z,76.20
2018-06-10T11:10:15.728Z,78.30
2018-06-10T11:11:47.338Z,64.40
2018-06-10T11:13:19.148Z,62.50
2018-06-10T11:14:51.753Z,59.10
2018-06-10T11:16:23.074Z,52.20
2018-06-10T11:17:54.580Z,47.10
2018-06-10T11:19:26.392Z,44.90
2018-06-10T11:20:58.203Z,42.90
2018-06-10T11:22:30.017Z,39.30
2018-06-10T11:24:02.232Z,35.40
2018-06-10T11:25:33.842Z,39.00
2018-06-10T11:27:06.128Z,37.20
2018-06-10T11:28:37.262Z,34.40
2018-06-10T11:30:09.074Z,33.40
2018-06-10T11:31:40.884Z,33.70
2018-06-10T11:34:44.509Z,30.60
2018-06-10T11:36:16.321Z,29.80
2018-06-10T11:37:48.133Z,31.40
2018-06-10T11:39:19.947Z,23.80
2018-06-10T11:42:23.775Z,22.90
2018-06-10T11:43:55.385Z,23.70
2018-06-10T11:45:27.208Z,22.50
2018-06-10T11:46:59.008Z,25.60
2018-06-10T11:48:30.820Z,28.10
2018-06-10T11:50:02.634Z,23.70
2018-06-10T11:51:34.447Z,21.30
2018-06-10T11:56:10.089Z,22.80
2018-06-10T11:59:13.513Z,24.80
2018-06-10T12:00:45.326Z,23.00
2018-06-10T12:02:17.744Z,22.30
2018-06-10T12:03:48.954Z,22.30
2018-06-10T12:05:20.896Z,21.10
2018-06-10T12:06:52.583Z,23.60
2018-06-10T12:08:24.398Z,18.50
2018-06-10T12:09:56.213Z,17.40
2018-06-10T12:11:28.029Z,20.40
2018-06-10T12:12:59.845Z,23.40
2018-06-10T12:14:31.864Z,24.10
2018-06-10T12:16:04.011Z,18.70
2018-06-10T12:17:35.301Z,22.90
2018-06-10T12:19:07.111Z,21.30
2018-06-10T12:20:39.028Z,21.90
2018-06-10T12:22:10.748Z,23.20
2018-06-10T12:23:42.568Z,21.70
2018-06-10T12:25:14.381Z,23.00
2018-06-10T12:26:46.201Z,22.20
2018-06-10T12:28:18.018Z,20.50
2018-06-10T12:31:21.656Z,20.60
2018-06-10T12:32:53.474Z,19.70
2018-06-10T12:34:25.293Z,20.50
2018-06-10T12:35:57.114Z,24.80
2018-06-10T12:37:28.932Z,23.50
2018-06-10T12:39:00.851Z,21.00
2018-06-10T12:40:32.569Z,25.40
2018-06-10T12:42:04.389Z,23.50
2018-06-10T12:43:36.214Z,23.20
2018-06-10T12:45:08.033Z,20.90
2018-06-10T12:46:39.853Z,22.30
2018-06-10T12:48:11.670Z,25.00
2018-06-10T12:49:43.793Z,23.90
2018-06-10T12:51:15.309Z,21.80
2018-06-10T12:52:47.127Z,22.80
2018-06-10T12:54:18.949Z,21.40
2018-06-10T12:55:51.073Z,20.90
2018-06-10T12:57:22.689Z,21.80
2018-06-10T12:58:54.408Z,18.30
2018-06-10T13:00:26.230Z,19.70
2018-06-10T13:01:58.050Z,18.50
2018-06-10T13:06:33.512Z,16.70
2018-06-10T13:09:37.151Z,17.20
2018-06-10T13:12:40.893Z,16.80
2018-06-10T13:14:13.145Z,18.10
2018-06-10T13:15:44.431Z,18.90
2018-06-10T13:17:16.251Z,18.50
2018-06-10T13:20:19.890Z,18.20
2018-06-10T13:23:23.549Z,18.60
2018-06-10T13:24:55.351Z,19.50
2018-06-10T13:26:27.167Z,19.00
2018-06-10T13:29:30.812Z,19.30
2018-06-10T13:31:02.931Z,20.30
2018-06-10T13:32:34.545Z,19.10
2018-06-10T13:34:06.265Z,19.70
2018-06-10T13:35:38.085Z,22.30
2018-06-10T13:37:09.903Z,18.90
2018-06-10T13:38:41.722Z,19.30
2018-06-10T13:40:13.543Z,19.40
2018-06-10T13:41:45.665Z,19.30
2018-06-10T13:43:17.188Z,16.30
2018-06-10T13:44:49.002Z,17.80
2018-06-10T13:47:52.644Z,18.50
2018-06-10T13:49:24.465Z,16.60
2018-06-10T13:50:56.693Z,18.50
2018-06-10T13:52:28.104Z,17.90
2018-06-10T13:53:59.927Z,17.80
2018-06-10T13:57:03.564Z,19.90
2018-06-10T13:58:35.921Z,19.10
2018-06-10T14:00:07.202Z,19.30
2018-06-10T14:01:39.028Z,19.50
2018-06-10T14:04:42.664Z,18.60
2018-06-10T14:06:14.785Z,17.70
2018-06-10T14:07:46.297Z,16.90
2018-06-10T14:10:50.038Z,16.10
2018-06-10T14:13:53.578Z,16.10
2018-06-10T14:15:25.701Z,17.90
2018-06-10T14:16:57.219Z,19.50
2018-06-10T14:18:29.042Z,19.70
2018-06-10T14:20:00.863Z,19.80
2018-06-10T14:21:32.883Z,19.80
2018-06-10T14:23:04.500Z,19.60
2018-06-10T14:24:36.321Z,19.60
2018-06-10T14:26:08.143Z,18.70
2018-06-10T14:27:39.963Z,19.00
2018-06-10T14:29:11.884Z,19.30
2018-06-10T14:30:43.806Z,19.00
2018-06-10T14:32:15.726Z,19.20
2018-06-10T14:33:47.244Z,20.80
2018-06-10T14:35:19.064Z,22.10
2018-06-10T14:36:50.883Z,19.30
2018-06-10T14:38:22.703Z,18.30
2018-06-10T14:39:54.726Z,21.90
2018-06-10T14:41:26.875Z,20.60
2018-06-10T14:42:58.161Z,23.60
2018-06-10T14:44:29.994Z,20.30
2018-06-10T14:46:01.800Z,19.50
2018-06-10T14:47:33.720Z,20.70
2018-06-10T14:49:05.743Z,23.20
2018-06-10T14:50:37.258Z,19.30
2018-06-10T14:52:09.080Z,19.20
2018-06-10T14:53:40.896Z,21.00
2018-06-10T14:55:12.716Z,21.20
2018-06-10T14:58:16.353Z,22.10
2018-06-10T14:59:48.173Z,20.10
2018-06-10T15:01:19.992Z,22.20
2018-06-10T15:02:51.812Z,21.60
2018-06-10T15:04:23.630Z,22.90
2018-06-10T15:08:59.494Z,21.20
2018-06-10T15:12:03.865Z,24.10
2018-06-10T15:15:06.367Z,23.20
2018-06-10T15:16:38.184Z,19.80
2018-06-10T15:18:10.075Z,20.70
2018-06-10T15:19:41.842Z,21.80
2018-06-10T15:21:13.642Z,21.80
2018-06-10T15:22:45.763Z,22.70
2018-06-10T15:27:21.018Z,22.80
2018-06-10T15:28:52.742Z,21.10
2018-06-10T15:31:56.378Z,23.00
2018-06-10T15:33:28.197Z,21.90
2018-06-10T15:35:00.020Z,22.20
2018-06-10T15:36:31.838Z,21.00
2018-06-10T15:39:36.010Z,23.30
2018-06-10T15:41:07.298Z,21.20
2018-06-10T15:42:39.117Z,21.80
2018-06-10T15:44:10.936Z,22.90
2018-06-10T15:45:43.059Z,23.30
2018-06-10T15:47:14.577Z,23.60
2018-06-10T15:48:46.395Z,22.10
2018-06-10T15:50:18.280Z,21.50
2018-06-10T15:51:50.039Z,23.20
2018-06-10T15:53:21.858Z,22.00
2018-06-10T15:54:53.676Z,22.00
2018-06-10T15:56:25.492Z,21.80
2018-06-10T15:57:57.312Z,21.90
2018-06-10T15:59:29.131Z,25.30
2018-06-10T16:02:32.769Z,21.50
2018-06-10T16:04:04.689Z,22.00
2018-06-10T16:05:36.407Z,22.00
2018-06-10T16:07:08.227Z,21.40
2018-06-10T16:08:40.049Z,23.50
2018-06-10T16:10:11.864Z,25.20
2018-06-10T16:13:15.500Z,22.70
2018-06-10T16:14:47.318Z,23.90
2018-06-10T16:16:19.137Z,25.30
2018-06-10T16:17:50.955Z,25.30
2018-06-10T16:19:22.774Z,23.60
2018-06-10T16:20:54.593Z,25.10
2018-06-10T16:22:26.510Z,23.80
2018-06-10T16:23:58.228Z,25.30
2018-06-10T16:25:30.046Z,28.60
2018-06-10T16:27:01.865Z,26.40
2018-06-10T16:30:05.761Z,23.50
2018-06-10T16:31:37.317Z,25.90
2018-06-10T16:33:09.136Z,26.20
2018-06-10T16:34:40.954Z,23.70
2018-06-10T16:36:12.974Z,24.90
2018-06-10T16:39:16.941Z,22.80
2018-06-10T16:40:48.225Z,24.00
2018-06-10T16:42:20.167Z,25.50
2018-06-10T16:43:52.164Z,25.20
2018-06-10T16:45:23.681Z,25.10
2018-06-10T16:46:55.497Z,24.80
2018-06-10T16:48:27.315Z,24.30
2018-06-10T16:49:59.134Z,24.60
2018-06-10T16:53:02.975Z,24.00
2018-06-10T16:54:34.901Z,25.20
2018-06-10T16:56:06.409Z,24.00
2018-06-10T16:57:38.229Z,23.90
2018-06-10T17:00:42.220Z,25.50
2018-06-10T17:02:13.996Z,23.20
2018-06-10T17:03:45.503Z,25.40
2018-06-10T17:05:17.324Z,27.70
2018-06-10T17:06:49.145Z,25.40
2018-06-10T17:08:20.965Z,24.30
2018-06-10T17:09:52.786Z,24.20
2018-06-10T17:11:24.607Z,23.00
2018-06-10T17:12:57.038Z,24.30
2018-06-10T17:14:28.251Z,28.70
2018-06-10T17:16:00.072Z,26.30
2018-06-10T17:17:31.898Z,25.40
2018-06-10T17:20:35.633Z,26.70
2018-06-10T17:22:07.669Z,25.40
2018-06-10T17:23:39.178Z,28.10
2018-06-10T17:25:10.998Z,41.30
2018-06-10T17:26:42.820Z,40.70
2018-06-10T17:29:46.463Z,29.70
2018-06-10T17:31:18.287Z,28.40
2018-06-10T17:32:50.109Z,26.10
2018-06-10T17:34:21.931Z,25.50
2018-06-10T17:35:53.753Z,25.60
2018-06-10T17:37:25.779Z,23.50
2018-06-10T17:38:57.504Z,25.20
2018-06-10T17:40:29.220Z,24.70
2018-06-10T17:42:01.041Z,24.60
2018-06-10T17:43:32.864Z,24.50
2018-06-10T17:45:04.686Z,24.50
2018-06-10T17:46:36.507Z,25.20
2018-06-10T17:48:08.338Z,25.30
2018-06-10T17:49:40.150Z,24.60
2018-06-10T17:52:43.791Z,24.60
2018-06-10T17:54:15.814Z,26.50
2018-06-10T17:57:19.253Z,28.70
2018-06-10T17:58:51.172Z,27.30
2018-06-10T18:00:22.892Z,28.30
2018-06-10T18:01:54.714Z,25.60
2018-06-10T18:03:26.532Z,24.90
2018-06-10T18:04:58.351Z,27.10
2018-06-10T18:06:30.172Z,30.20
2018-06-10T18:08:02.193Z,23.30
2018-06-10T18:09:33.810Z,25.40
2018-06-10T18:11:05.833Z,24.40
2018-06-10T18:12:37.489Z,24.20
2018-06-10T18:14:09.475Z,25.80
2018-06-10T18:15:41.091Z,25.70
2018-06-10T18:17:13.542Z,27.60
2018-06-10T18:18:44.729Z,25.00
2018-06-10T18:20:16.549Z,25.10
2018-06-10T18:21:48.572Z,27.70
2018-06-10T18:23:20.722Z,27.50
2018-06-10T18:24:52.008Z,27.90
2018-06-10T18:26:23.829Z,29.40
2018-06-10T18:27:55.654Z,25.70
2018-06-10T18:29:27.474Z,26.20
2018-06-10T18:30:59.310Z,25.90
2018-06-10T18:32:31.109Z,23.80
2018-06-10T18:34:02.930Z,23.10
2018-06-10T18:35:34.852Z,23.30
2018-06-10T18:37:06.573Z,21.30
2018-06-10T18:38:38.395Z,21.80
2018-06-10T18:40:10.216Z,21.00
2018-06-10T18:41:42.042Z,20.20
2018-06-10T18:43:13.860Z,19.80
2018-06-10T18:46:17.502Z,21.90
2018-06-10T18:47:49.328Z,21.50
2018-06-10T18:49:21.145Z,22.50
2018-06-10T18:50:52.967Z,22.10
2018-06-10T18:52:24.788Z,21.80
2018-06-10T18:53:56.709Z,23.50
2018-06-10T18:55:28.431Z,22.50
2018-06-10T18:57:00.253Z,22.70
2018-06-10T18:58:32.073Z,24.30
2018-06-10T19:00:03.896Z,20.80
2018-06-10T19:01:35.716Z,23.30
2018-06-10T19:03:07.537Z,22.00
2018-06-10T19:04:39.357Z,22.70
2018-06-10T19:06:11.177Z,21.60
2018-06-10T19:07:42.998Z,26.10
2018-06-10T19:09:14.819Z,24.40
2018-06-10T19:10:46.640Z,22.60
2018-06-10T19:12:18.558Z,24.50
2018-06-10T19:13:50.278Z,22.60
2018-06-10T19:15:22.098Z,23.10
2018-06-10T19:16:53.920Z,23.60
2018-06-10T19:18:25.737Z,27.10
2018-06-10T19:19:57.557Z,23.20
2018-06-10T19:21:29.378Z,24.60
2018-06-10T19:23:01.501Z,23.40
2018-06-10T19:24:33.015Z,23.30
2018-06-10T19:26:04.835Z,24.60
2018-06-10T19:27:36.655Z,24.10
2018-06-10T19:29:08.473Z,24.70
2018-06-10T19:30:40.393Z,26.40
2018-06-10T19:32:12.111Z,25.10
2018-06-10T19:33:43.968Z,27.30
2018-06-10T19:35:15.748Z,30.90
2018-06-10T19:36:47.934Z,28.50
2018-06-10T19:38:19.384Z,28.20
2018-06-10T19:39:51.203Z,32.50
2018-06-10T19:41:23.022Z,31.60
2018-06-10T19:42:54.841Z,27.00
2018-06-10T19:44:26.655Z,27.00
2018-06-10T19:45:58.487Z,25.50
2018-06-10T19:47:30.291Z,27.60
2018-06-10T19:49:02.209Z,25.00
2018-06-10T19:50:33.928Z,26.90
2018-06-10T19:52:05.948Z,28.60
2018-06-10T19:53:37.564Z,30.20
2018-06-10T19:55:09.684Z,29.40
2018-06-10T19:56:41.203Z,27.50
2018-06-10T19:58:13.015Z,28.60
2018-06-10T19:59:44.832Z,28.10
2018-06-10T20:01:16.652Z,28.70
2018-06-10T20:02:48.470Z,29.00
2018-06-10T20:04:20.286Z,29.80
2018-06-10T20:05:52.102Z,27.70
2018-06-10T20:07:24.018Z,30.20
2018-06-10T20:10:27.553Z,31.60
2018-06-10T20:11:59.673Z,29.40
2018-06-10T20:13:31.969Z,27.80
2018-06-10T20:15:03.002Z,30.70
2018-06-10T20:16:34.819Z,30.20
2018-06-10T20:18:06.637Z,30.50
2018-06-10T20:19:38.456Z,32.80
2018-06-10T20:21:10.268Z,32.10
2018-06-10T20:22:42.084Z,34.10
2018-06-10T20:24:13.901Z,28.60
2018-06-10T20:25:45.871Z,34.40
2018-06-10T20:27:17.532Z,30.00
2018-06-10T20:28:49.348Z,31.90
2018-06-10T20:30:21.221Z,36.20
2018-06-10T20:31:52.980Z,38.70
2018-06-10T20:33:24.796Z,34.50